sensor_id;sensor_type;location;lat;lon;timestamp;pressure;altitude;pressure_sealevel;temperature;humidity
9855;BME280;4966;48.112;9.282;2022-09-13T00:00:41;94456.78;;;11.62;80.37
9855;BME280;4966;48.112;9.282;2022-09-13T00:03:08;94463.31;;;11.29;82.52
9855;BME280;4966;48.112;9.282;2022-09-13T00:05:35;94461.63;;;11.24;82.91
9855;BME280;4966;48.112;9.282;2022-09-13T00:08:01;94453.63;;;11.16;83.47
9855;BME280;4966;48.112;9.282;2022-09-13T00:10:27;94452.56;;;11.20;84.29
9855;BME280;4966;48.112;9.282;2022-09-13T00:12:53;94456.56;;;11.11;85.13
9855;BME280;4966;48.112;9.282;2022-09-13T00:15:18;94456.22;;;11.40;83.42
9855;BME280;4966;48.112;9.282;2022-09-13T00:17:45;94447.44;;;11.47;82.22
9855;BME280;4966;48.112;9.282;2022-09-13T00:20:10;94448.72;;;11.37;82.61
9855;BME280;4966;48.112;9.282;2022-09-13T00:22:36;94450.09;;;11.15;83.78
9855;BME280;4966;48.112;9.282;2022-09-13T00:25:05;94442.72;;;11.16;83.63
9855;BME280;4966;48.112;9.282;2022-09-13T00:27:32;94440.19;;;11.23;83.60
9855;BME280;4966;48.112;9.282;2022-09-13T00:29:58;94431.53;;;11.33;82.12
9855;BME280;4966;48.112;9.282;2022-09-13T00:32:23;94431.72;;;11.40;81.68
9855;BME280;4966;48.112;9.282;2022-09-13T00:34:49;94423.50;;;11.24;82.32
9855;BME280;4966;48.112;9.282;2022-09-13T00:37:14;94421.28;;;11.14;83.05
9855;BME280;4966;48.112;9.282;2022-09-13T00:39:40;94420.59;;;11.17;82.59
9855;BME280;4966;48.112;9.282;2022-09-13T00:42:11;94422.06;;;11.15;83.14
9855;BME280;4966;48.112;9.282;2022-09-13T00:47:24;94412.94;;;11.07;83.25
9855;BME280;4966;48.112;9.282;2022-09-13T00:49:53;94420.50;;;11.14;83.55
9855;BME280;4966;48.112;9.282;2022-09-13T00:52:24;94422.78;;;11.27;81.95
9855;BME280;4966;48.112;9.282;2022-09-13T00:54:52;94421.72;;;11.16;82.43
9855;BME280;4966;48.112;9.282;2022-09-13T00:57:21;94418.84;;;11.25;81.96
9855;BME280;4966;48.112;9.282;2022-09-13T00:59:57;94423.88;;;11.23;81.45
9855;BME280;4966;48.112;9.282;2022-09-13T01:02:28;94417.22;;;11.08;82.21
9855;BME280;4966;48.112;9.282;2022-09-13T01:04:54;94418.03;;;11.09;82.56
9855;BME280;4966;48.112;9.282;2022-09-13T01:07:19;94410.47;;;11.18;81.74
9855;BME280;4966;48.112;9.282;2022-09-13T01:09:47;94413.00;;;11.11;81.61
9855;BME280;4966;48.112;9.282;2022-09-13T01:14:50;94411.38;;;10.94;82.88
9855;BME280;4966;48.112;9.282;2022-09-13T01:17:16;94412.41;;;10.89;83.47
9855;BME280;4966;48.112;9.282;2022-09-13T01:19:42;94409.66;;;11.01;82.90
9855;BME280;4966;48.112;9.282;2022-09-13T01:24:58;94413.00;;;11.11;81.17
9855;BME280;4966;48.112;9.282;2022-09-13T01:30:16;94413.00;;;11.11;80.96
9855;BME280;4966;48.112;9.282;2022-09-13T01:35:46;94412.47;;;10.77;83.14
9855;BME280;4966;48.112;9.282;2022-09-13T01:41:12;94413.03;;;10.82;83.43
9855;BME280;4966;48.112;9.282;2022-09-13T01:51:50;94412.72;;;10.72;83.03
9855;BME280;4966;48.112;9.282;2022-09-13T01:57:47;94397.41;;;10.67;82.85
9855;BME280;4966;48.112;9.282;2022-09-13T01:59:57;94398.06;;;10.76;81.98
9855;BME280;4966;48.112;9.282;2022-09-13T02:02:31;94394.41;;;10.84;81.79
9855;BME280;4966;48.112;9.282;2022-09-13T02:05:05;94401.84;;;10.72;82.16
9855;BME280;4966;48.112;9.282;2022-09-13T02:07:36;94393.00;;;10.62;82.43
9855;BME280;4966;48.112;9.282;2022-09-13T02:10:11;94396.88;;;10.61;81.99
9855;BME280;4966;48.112;9.282;2022-09-13T02:12:39;94404.72;;;10.51;82.44
9855;BME280;4966;48.112;9.282;2022-09-13T02:15:15;94410.78;;;10.72;81.57
9855;BME280;4966;48.112;9.282;2022-09-13T02:17:48;94420.50;;;10.45;83.30
9855;BME280;4966;48.112;9.282;2022-09-13T02:20:24;94419.44;;;10.62;82.25
9855;BME280;4966;48.112;9.282;2022-09-13T02:22:55;94418.97;;;10.60;81.34
9855;BME280;4966;48.112;9.282;2022-09-13T02:25:24;94428.41;;;10.50;81.47
9855;BME280;4966;48.112;9.282;2022-09-13T02:27:57;94424.66;;;10.55;81.55
9855;BME280;4966;48.112;9.282;2022-09-13T02:30:26;94403.03;;;10.58;80.81
9855;BME280;4966;48.112;9.282;2022-09-13T02:32:59;94404.59;;;10.59;80.68
9855;BME280;4966;48.112;9.282;2022-09-13T02:35:34;94411.34;;;10.37;81.54
9855;BME280;4966;48.112;9.282;2022-09-13T02:38:04;94414.72;;;10.22;83.10
9855;BME280;4966;48.112;9.282;2022-09-13T02:40:36;94414.28;;;10.45;82.57
9855;BME280;4966;48.112;9.282;2022-09-13T02:43:07;94408.84;;;10.32;83.81
9855;BME280;4966;48.112;9.282;2022-09-13T02:45:44;94414.34;;;10.48;82.70
9855;BME280;4966;48.112;9.282;2022-09-13T02:48:20;94405.91;;;10.25;83.83
9855;BME280;4966;48.112;9.282;2022-09-13T02:50:59;94408.94;;;10.23;83.83
9855;BME280;4966;48.112;9.282;2022-09-13T02:54:13;94406.34;;;10.27;84.06
9855;BME280;4966;48.112;9.282;2022-09-13T02:56:49;94405.53;;;10.27;84.20
9855;BME280;4966;48.112;9.282;2022-09-13T02:59:20;94421.06;;;10.38;83.50
9855;BME280;4966;48.112;9.282;2022-09-13T03:01:56;94413.00;;;10.17;84.18
9855;BME280;4966;48.112;9.282;2022-09-13T03:04:22;94413.16;;;10.33;83.43
9855;BME280;4966;48.112;9.282;2022-09-13T03:06:48;94420.06;;;10.31;82.72
9855;BME280;4966;48.112;9.282;2022-09-13T03:09:13;94426.16;;;10.40;81.77
9855;BME280;4966;48.112;9.282;2022-09-13T03:11:52;94419.94;;;10.27;81.79
9855;BME280;4966;48.112;9.282;2022-09-13T03:20:00;94435.44;;;10.27;80.74
9855;BME280;4966;48.112;9.282;2022-09-13T03:22:54;94425.50;;;10.18;81.02
9855;BME280;4966;48.112;9.282;2022-09-13T03:25:33;94415.78;;;10.30;81.21
9855;BME280;4966;48.112;9.282;2022-09-13T03:28:19;94409.06;;;10.15;81.86
9855;BME280;4966;48.112;9.282;2022-09-13T03:30:54;94405.13;;;10.00;82.64
9855;BME280;4966;48.112;9.282;2022-09-13T03:35:53;94401.38;;;10.05;83.15
9855;BME280;4966;48.112;9.282;2022-09-13T03:38:28;94399.34;;;10.14;82.69
9855;BME280;4966;48.112;9.282;2022-09-13T03:40:59;94403.06;;;10.09;83.13
9855;BME280;4966;48.112;9.282;2022-09-13T03:43:49;94400.81;;;10.11;82.42
9855;BME280;4966;48.112;9.282;2022-09-13T03:48:44;94404.31;;;9.99;83.64
9855;BME280;4966;48.112;9.282;2022-09-13T03:51:10;94392.19;;;10.09;82.66
9855;BME280;4966;48.112;9.282;2022-09-13T03:53:39;94392.53;;;9.95;83.21
9855;BME280;4966;48.112;9.282;2022-09-13T03:56:18;94399.59;;;9.96;83.48
9855;BME280;4966;48.112;9.282;2022-09-13T03:58:46;94401.50;;;10.08;82.16
9855;BME280;4966;48.112;9.282;2022-09-13T04:01:12;94402.75;;;10.11;81.06
9855;BME280;4966;48.112;9.282;2022-09-13T04:03:38;94396.72;;;10.05;81.23
9855;BME280;4966;48.112;9.282;2022-09-13T04:06:05;94401.47;;;9.96;81.23
9855;BME280;4966;48.112;9.282;2022-09-13T04:08:31;94398.09;;;9.74;82.14
9855;BME280;4966;48.112;9.282;2022-09-13T04:10:57;94392.00;;;9.65;83.66
9855;BME280;4966;48.112;9.282;2022-09-13T04:13:22;94398.09;;;9.62;84.08
9855;BME280;4966;48.112;9.282;2022-09-13T04:15:48;94402.72;;;9.62;84.23
9855;BME280;4966;48.112;9.282;2022-09-13T04:18:16;94405.69;;;9.69;84.34
9855;BME280;4966;48.112;9.282;2022-09-13T04:20:42;94406.69;;;9.76;84.05
9855;BME280;4966;48.112;9.282;2022-09-13T04:23:08;94400.25;;;9.93;83.04
9855;BME280;4966;48.112;9.282;2022-09-13T04:25:37;94395.41;;;9.87;82.83
9855;BME280;4966;48.112;9.282;2022-09-13T04:28:03;94401.72;;;9.66;83.52
9855;BME280;4966;48.112;9.282;2022-09-13T04:30:28;94409.41;;;9.64;83.87
9855;BME280;4966;48.112;9.282;2022-09-13T04:32:54;94407.69;;;9.59;84.36
9855;BME280;4966;48.112;9.282;2022-09-13T04:35:24;94413.38;;;9.67;84.57
9855;BME280;4966;48.112;9.282;2022-09-13T04:37:49;94410.88;;;9.86;82.45
9855;BME280;4966;48.112;9.282;2022-09-13T04:40:15;94403.41;;;9.71;82.65
9855;BME280;4966;48.112;9.282;2022-09-13T04:42:42;94414.19;;;9.79;81.94
9855;BME280;4966;48.112;9.282;2022-09-13T04:45:08;94402.97;;;9.69;82.00
9855;BME280;4966;48.112;9.282;2022-09-13T04:47:34;94416.84;;;9.55;82.68
9855;BME280;4966;48.112;9.282;2022-09-13T04:50:00;94422.50;;;9.50;83.41
9855;BME280;4966;48.112;9.282;2022-09-13T04:52:25;94425.91;;;9.47;83.84
9855;BME280;4966;48.112;9.282;2022-09-13T04:54:50;94421.50;;;9.67;82.86
9855;BME280;4966;48.112;9.282;2022-09-13T04:57:16;94420.63;;;9.75;81.97
9855;BME280;4966;48.112;9.282;2022-09-13T04:59:42;94428.88;;;9.54;82.96
9855;BME280;4966;48.112;9.282;2022-09-13T05:02:07;94443.66;;;9.44;84.01
9855;BME280;4966;48.112;9.282;2022-09-13T05:04:33;94444.84;;;9.55;83.90
9855;BME280;4966;48.112;9.282;2022-09-13T05:06:59;94438.63;;;9.79;81.83
9855;BME280;4966;48.112;9.282;2022-09-13T05:09:24;94442.69;;;9.73;81.43
9855;BME280;4966;48.112;9.282;2022-09-13T05:11:49;94444.72;;;9.76;81.31
9855;BME280;4966;48.112;9.282;2022-09-13T05:14:15;94438.50;;;9.76;81.48
9855;BME280;4966;48.112;9.282;2022-09-13T05:16:40;94433.19;;;9.79;80.89
9855;BME280;4966;48.112;9.282;2022-09-13T05:19:06;94441.78;;;9.69;81.78
9855;BME280;4966;48.112;9.282;2022-09-13T05:21:31;94436.56;;;9.64;83.16
9855;BME280;4966;48.112;9.282;2022-09-13T05:23:57;94427.31;;;9.77;83.58
9855;BME280;4966;48.112;9.282;2022-09-13T05:26:25;94432.19;;;10.09;82.12
9855;BME280;4966;48.112;9.282;2022-09-13T05:28:51;94430.59;;;10.20;81.94
9855;BME280;4966;48.112;9.282;2022-09-13T05:31:21;94434.78;;;10.42;81.72
9855;BME280;4966;48.112;9.282;2022-09-13T05:33:57;94437.34;;;10.51;81.76
9855;BME280;4966;48.112;9.282;2022-09-13T05:36:24;94436.31;;;10.55;81.86
9855;BME280;4966;48.112;9.282;2022-09-13T05:38:51;94429.25;;;10.79;81.13
9855;BME280;4966;48.112;9.282;2022-09-13T05:41:17;94421.41;;;10.90;80.67
9855;BME280;4966;48.112;9.282;2022-09-13T05:43:42;94431.34;;;10.98;81.25
9855;BME280;4966;48.112;9.282;2022-09-13T05:46:10;94436.59;;;11.19;80.68
9855;BME280;4966;48.112;9.282;2022-09-13T05:48:37;94433.69;;;11.27;80.32
9855;BME280;4966;48.112;9.282;2022-09-13T05:51:04;94436.97;;;11.33;79.98
9855;BME280;4966;48.112;9.282;2022-09-13T05:53:31;94439.16;;;11.43;79.91
9855;BME280;4966;48.112;9.282;2022-09-13T05:55:56;94439.53;;;11.58;79.28
9855;BME280;4966;48.112;9.282;2022-09-13T05:58:21;94429.88;;;11.60;79.01
9855;BME280;4966;48.112;9.282;2022-09-13T06:00:54;94439.28;;;11.63;78.79
9855;BME280;4966;48.112;9.282;2022-09-13T06:03:21;94439.47;;;11.70;78.01
9855;BME280;4966;48.112;9.282;2022-09-13T06:05:47;94435.88;;;11.82;77.38
9855;BME280;4966;48.112;9.282;2022-09-13T06:08:12;94435.28;;;11.88;76.82
9855;BME280;4966;48.112;9.282;2022-09-13T06:10:38;94439.13;;;11.87;77.55
9855;BME280;4966;48.112;9.282;2022-09-13T06:13:03;94443.38;;;12.17;77.29
9855;BME280;4966;48.112;9.282;2022-09-13T06:15:29;94449.56;;;12.33;77.93
9855;BME280;4966;48.112;9.282;2022-09-13T06:17:54;94441.09;;;12.54;77.25
9855;BME280;4966;48.112;9.282;2022-09-13T06:20:20;94444.91;;;12.69;76.72
9855;BME280;4966;48.112;9.282;2022-09-13T06:22:47;94446.66;;;12.77;76.62
9855;BME280;4966;48.112;9.282;2022-09-13T06:25:12;94441.28;;;12.81;76.97
9855;BME280;4966;48.112;9.282;2022-09-13T06:27:37;94433.16;;;12.65;77.74
9855;BME280;4966;48.112;9.282;2022-09-13T06:30:03;94432.16;;;12.73;77.79
9855;BME280;4966;48.112;9.282;2022-09-13T06:32:29;94428.63;;;12.72;78.15
9855;BME280;4966;48.112;9.282;2022-09-13T06:34:55;94428.06;;;12.83;78.08
9855;BME280;4966;48.112;9.282;2022-09-13T06:37:20;94420.66;;;12.83;78.42
9855;BME280;4966;48.112;9.282;2022-09-13T06:39:46;94426.84;;;12.99;78.34
9855;BME280;4966;48.112;9.282;2022-09-13T06:42:11;94426.69;;;13.12;78.00
9855;BME280;4966;48.112;9.282;2022-09-13T06:44:37;94427.69;;;13.23;78.20
9855;BME280;4966;48.112;9.282;2022-09-13T06:47:02;94416.94;;;13.30;79.13
9855;BME280;4966;48.112;9.282;2022-09-13T06:49:27;94415.50;;;13.17;81.31
9855;BME280;4966;48.112;9.282;2022-09-13T06:51:55;94412.47;;;12.83;82.64
9855;BME280;4966;48.112;9.282;2022-09-13T06:54:21;94414.47;;;13.25;81.42
9855;BME280;4966;48.112;9.282;2022-09-13T06:56:46;94397.47;;;13.32;80.88
9855;BME280;4966;48.112;9.282;2022-09-13T06:59:11;94406.44;;;13.75;78.48
9855;BME280;4966;48.112;9.282;2022-09-13T07:01:38;94400.22;;;14.01;77.82
9855;BME280;4966;48.112;9.282;2022-09-13T07:06:35;94398.28;;;14.28;77.66
9855;BME280;4966;48.112;9.282;2022-09-13T07:09:03;94390.94;;;14.59;77.09
9855;BME280;4966;48.112;9.282;2022-09-13T07:11:30;94397.13;;;14.82;76.71
9855;BME280;4966;48.112;9.282;2022-09-13T07:13:57;94410.59;;;14.98;77.50
9855;BME280;4966;48.112;9.282;2022-09-13T07:16:25;94403.50;;;15.27;77.68
9855;BME280;4966;48.112;9.282;2022-09-13T07:18:52;94413.50;;;15.46;77.01
9855;BME280;4966;48.112;9.282;2022-09-13T07:21:17;94413.00;;;15.71;77.29
9855;BME280;4966;48.112;9.282;2022-09-13T07:23:43;94410.72;;;15.80;78.51
9855;BME280;4966;48.112;9.282;2022-09-13T07:26:08;94413.78;;;15.71;77.52
9855;BME280;4966;48.112;9.282;2022-09-13T07:28:36;94413.47;;;15.80;78.39
9855;BME280;4966;48.112;9.282;2022-09-13T07:31:19;94408.44;;;16.34;76.78
9855;BME280;4966;48.112;9.282;2022-09-13T07:33:45;94403.47;;;16.54;76.22
9855;BME280;4966;48.112;9.282;2022-09-13T07:36:12;94407.03;;;16.58;76.32
9855;BME280;4966;48.112;9.282;2022-09-13T07:38:39;94401.72;;;16.87;77.13
9855;BME280;4966;48.112;9.282;2022-09-13T07:41:06;94406.81;;;16.85;76.30
9855;BME280;4966;48.112;9.282;2022-09-13T07:43:34;94409.00;;;17.38;75.10
9855;BME280;4966;48.112;9.282;2022-09-13T07:46:02;94402.41;;;17.68;72.81
9855;BME280;4966;48.112;9.282;2022-09-13T07:48:30;94407.13;;;17.74;73.08
9855;BME280;4966;48.112;9.282;2022-09-13T07:51:16;94402.41;;;17.78;73.21
9855;BME280;4966;48.112;9.282;2022-09-13T07:53:43;94398.94;;;17.89;73.46
9855;BME280;4966;48.112;9.282;2022-09-13T07:56:20;94399.72;;;18.14;72.90
9855;BME280;4966;48.112;9.282;2022-09-13T07:58:47;94400.09;;;18.48;73.37
9855;BME280;4966;48.112;9.282;2022-09-13T08:01:17;94391.84;;;18.38;74.65
9855;BME280;4966;48.112;9.282;2022-09-13T08:03:44;94388.25;;;18.87;74.13
9855;BME280;4966;48.112;9.282;2022-09-13T08:06:14;94389.44;;;18.68;76.29
9855;BME280;4966;48.112;9.282;2022-09-13T08:08:39;94386.25;;;18.99;74.45
9855;BME280;4966;48.112;9.282;2022-09-13T08:11:05;94388.59;;;19.04;71.34
9855;BME280;4966;48.112;9.282;2022-09-13T08:13:31;94393.50;;;19.52;70.37
9855;BME280;4966;48.112;9.282;2022-09-13T08:16:01;94393.50;;;19.48;68.85
9855;BME280;4966;48.112;9.282;2022-09-13T08:18:27;94391.81;;;19.65;67.62
9855;BME280;4966;48.112;9.282;2022-09-13T08:20:55;94401.28;;;19.71;66.53
9855;BME280;4966;48.112;9.282;2022-09-13T08:23:21;94407.44;;;19.97;66.83
9855;BME280;4966;48.112;9.282;2022-09-13T08:25:46;94409.00;;;19.98;67.01
9855;BME280;4966;48.112;9.282;2022-09-13T08:28:16;94402.06;;;20.28;64.64
9855;BME280;4966;48.112;9.282;2022-09-13T08:30:42;94395.81;;;20.20;65.69
9855;BME280;4966;48.112;9.282;2022-09-13T08:33:09;94391.78;;;20.32;65.75
9855;BME280;4966;48.112;9.282;2022-09-13T08:35:36;94385.63;;;20.62;64.05
9855;BME280;4966;48.112;9.282;2022-09-13T08:38:03;94386.47;;;20.55;64.75
9855;BME280;4966;48.112;9.282;2022-09-13T08:40:44;94398.78;;;20.44;64.30
9855;BME280;4966;48.112;9.282;2022-09-13T08:43:47;94405.63;;;20.73;65.14
9855;BME280;4966;48.112;9.282;2022-09-13T08:46:25;94404.25;;;20.92;63.61
9855;BME280;4966;48.112;9.282;2022-09-13T08:48:55;94410.53;;;20.96;63.26
9855;BME280;4966;48.112;9.282;2022-09-13T08:51:34;94404.03;;;21.14;63.34
9855;BME280;4966;48.112;9.282;2022-09-13T08:54:02;94400.38;;;21.24;63.83
9855;BME280;4966;48.112;9.282;2022-09-13T08:56:30;94396.34;;;21.63;62.41
9855;BME280;4966;48.112;9.282;2022-09-13T08:59:08;94389.69;;;21.57;61.86
9855;BME280;4966;48.112;9.282;2022-09-13T09:06:44;94378.84;;;21.97;60.38
9855;BME280;4966;48.112;9.282;2022-09-13T09:09:18;94378.91;;;21.93;60.18
9855;BME280;4966;48.112;9.282;2022-09-13T09:12:16;94376.03;;;22.51;59.00
9855;BME280;4966;48.112;9.282;2022-09-13T09:14:51;94378.09;;;22.47;58.78
9855;BME280;4966;48.112;9.282;2022-09-13T09:17:25;94374.44;;;22.73;58.66
9855;BME280;4966;48.112;9.282;2022-09-13T09:19:55;94362.22;;;22.71;57.33
9855;BME280;4966;48.112;9.282;2022-09-13T09:22:31;94365.81;;;22.91;59.48
9855;BME280;4966;48.112;9.282;2022-09-13T09:24:57;94368.34;;;23.06;57.08
9855;BME280;4966;48.112;9.282;2022-09-13T09:27:22;94363.56;;;23.06;56.99
9855;BME280;4966;48.112;9.282;2022-09-13T09:29:50;94359.41;;;22.94;56.91
9855;BME280;4966;48.112;9.282;2022-09-13T09:35:43;94356.44;;;23.45;54.16
9855;BME280;4966;48.112;9.282;2022-09-13T09:41:29;94354.19;;;23.76;52.08
9855;BME280;4966;48.112;9.282;2022-09-13T09:46:42;94344.44;;;24.05;49.47
9855;BME280;4966;48.112;9.282;2022-09-13T09:49:18;94335.91;;;23.95;45.67
9855;BME280;4966;48.112;9.282;2022-09-13T09:52:06;94334.00;;;24.09;45.38
9855;BME280;4966;48.112;9.282;2022-09-13T09:54:34;94327.06;;;24.33;48.20
9855;BME280;4966;48.112;9.282;2022-09-13T09:57:00;94336.44;;;24.07;53.49
9855;BME280;4966;48.112;9.282;2022-09-13T09:59:28;94326.78;;;24.60;52.18
9855;BME280;4966;48.112;9.282;2022-09-13T10:01:55;94325.66;;;24.87;47.86
9855;BME280;4966;48.112;9.282;2022-09-13T10:04:22;94323.72;;;25.00;48.71
9855;BME280;4966;48.112;9.282;2022-09-13T10:06:48;94318.16;;;25.00;44.04
9855;BME280;4966;48.112;9.282;2022-09-13T10:09:19;94321.38;;;24.99;44.65
9855;BME280;4966;48.112;9.282;2022-09-13T10:11:56;94316.63;;;25.12;43.02
9855;BME280;4966;48.112;9.282;2022-09-13T10:17:20;94319.66;;;25.85;43.03
9855;BME280;4966;48.112;9.282;2022-09-13T10:22:19;94310.31;;;25.79;43.96
9855;BME280;4966;48.112;9.282;2022-09-13T10:24:45;94313.44;;;25.94;42.86
9855;BME280;4966;48.112;9.282;2022-09-13T10:27:33;94318.47;;;25.99;41.63
9855;BME280;4966;48.112;9.282;2022-09-13T10:30:01;94333.16;;;26.25;41.15
9855;BME280;4966;48.112;9.282;2022-09-13T10:32:28;94322.19;;;26.31;40.59
9855;BME280;4966;48.112;9.282;2022-09-13T10:34:56;94325.00;;;26.31;40.32
9855;BME280;4966;48.112;9.282;2022-09-13T10:37:27;94323.25;;;26.24;40.64
9855;BME280;4966;48.112;9.282;2022-09-13T10:40:02;94316.81;;;26.62;41.57
9855;BME280;4966;48.112;9.282;2022-09-13T10:42:30;94323.88;;;26.28;40.63
9855;BME280;4966;48.112;9.282;2022-09-13T10:45:02;94330.06;;;26.10;40.61
9855;BME280;4966;48.112;9.282;2022-09-13T10:47:33;94320.31;;;26.28;40.34
9855;BME280;4966;48.112;9.282;2022-09-13T10:52:49;94339.59;;;26.35;38.06
9855;BME280;4966;48.112;9.282;2022-09-13T11:03:25;94308.38;;;27.54;36.65
9855;BME280;4966;48.112;9.282;2022-09-13T11:08:55;94301.84;;;27.57;35.54
9855;BME280;4966;48.112;9.282;2022-09-13T11:11:59;94298.34;;;27.97;36.47
9855;BME280;4966;48.112;9.282;2022-09-13T11:28:08;94299.94;;;29.21;33.16
9855;BME280;4966;48.112;9.282;2022-09-13T11:39:46;94285.00;;;37.86;19.98
9855;BME280;4966;48.112;9.282;2022-09-13T11:42:42;94288.88;;;39.61;18.73
9855;BME280;4966;48.112;9.282;2022-09-13T11:45:26;94285.34;;;36.49;20.84
9855;BME280;4966;48.112;9.282;2022-09-13T11:50:48;94272.75;;;34.03;23.75
9855;BME280;4966;48.112;9.282;2022-09-13T11:56:33;94268.84;;;33.63;23.87
9855;BME280;4966;48.112;9.282;2022-09-13T12:01:37;94259.56;;;34.26;22.37
9855;BME280;4966;48.112;9.282;2022-09-13T12:06:58;94265.50;;;35.59;20.90
9855;BME280;4966;48.112;9.282;2022-09-13T12:09:28;94255.31;;;37.87;18.55
9855;BME280;4966;48.112;9.282;2022-09-13T12:12:06;94251.50;;;38.89;17.58
9855;BME280;4966;48.112;9.282;2022-09-13T12:14:42;94246.13;;;38.61;17.93
9855;BME280;4966;48.112;9.282;2022-09-13T12:17:21;94248.88;;;34.84;20.46
9855;BME280;4966;48.112;9.282;2022-09-13T12:19:50;94247.34;;;34.94;21.19
9855;BME280;4966;48.112;9.282;2022-09-13T12:22:21;94252.25;;;35.00;22.82
9855;BME280;4966;48.112;9.282;2022-09-13T12:24:50;94252.78;;;34.49;19.65
9855;BME280;4966;48.112;9.282;2022-09-13T12:27:26;94248.81;;;34.73;22.13
9855;BME280;4966;48.112;9.282;2022-09-13T12:30:04;94241.66;;;34.35;21.26
9855;BME280;4966;48.112;9.282;2022-09-13T12:32:30;94252.69;;;34.33;23.20
9855;BME280;4966;48.112;9.282;2022-09-13T12:35:06;94239.69;;;34.52;22.79
9855;BME280;4966;48.112;9.282;2022-09-13T12:40:38;94238.38;;;33.67;25.26
9855;BME280;4966;48.112;9.282;2022-09-13T12:49:12;94229.19;;;33.46;23.17
9855;BME280;4966;48.112;9.282;2022-09-13T13:02:56;94215.16;;;34.21;22.34
9855;BME280;4966;48.112;9.282;2022-09-13T13:07:56;94217.94;;;35.74;21.01
9855;BME280;4966;48.112;9.282;2022-09-13T13:10:25;94212.56;;;35.65;20.27
9855;BME280;4966;48.112;9.282;2022-09-13T13:12:51;94206.38;;;35.84;19.50
9855;BME280;4966;48.112;9.282;2022-09-13T13:17:46;94214.03;;;35.15;21.20
9855;BME280;4966;48.112;9.282;2022-09-13T13:31:32;94200.34;;;33.04;24.62
9855;BME280;4966;48.112;9.282;2022-09-13T13:36:47;94211.22;;;33.43;26.32
9855;BME280;4966;48.112;9.282;2022-09-13T13:46:48;94198.44;;;33.16;25.77
9855;BME280;4966;48.112;9.282;2022-09-13T13:57:32;94186.25;;;32.58;30.06
9855;BME280;4966;48.112;9.282;2022-09-13T14:00:12;94188.06;;;32.40;30.94
9855;BME280;4966;48.112;9.282;2022-09-13T14:11:14;94180.09;;;31.83;30.11
9855;BME280;4966;48.112;9.282;2022-09-13T14:21:43;94177.03;;;31.66;32.60
9855;BME280;4966;48.112;9.282;2022-09-13T14:24:33;94182.16;;;31.68;31.35
9855;BME280;4966;48.112;9.282;2022-09-13T14:27:00;94179.75;;;31.75;33.08
9855;BME280;4966;48.112;9.282;2022-09-13T14:29:26;94180.03;;;32.13;32.21
9855;BME280;4966;48.112;9.282;2022-09-13T14:31:54;94172.44;;;32.80;32.84
9855;BME280;4966;48.112;9.282;2022-09-13T14:34:31;94163.72;;;33.62;31.40
9855;BME280;4966;48.112;9.282;2022-09-13T14:36:59;94172.81;;;34.21;27.51
9855;BME280;4966;48.112;9.282;2022-09-13T14:39:26;94165.34;;;34.18;26.76
9855;BME280;4966;48.112;9.282;2022-09-13T14:44:25;94163.94;;;35.10;27.63
9855;BME280;4966;48.112;9.282;2022-09-13T14:49:39;94155.16;;;37.27;22.94
9855;BME280;4966;48.112;9.282;2022-09-13T14:52:20;94152.66;;;37.83;21.30
9855;BME280;4966;48.112;9.282;2022-09-13T14:54:51;94145.50;;;38.01;20.97
9855;BME280;4966;48.112;9.282;2022-09-13T14:57:32;94145.91;;;37.20;23.03
9855;BME280;4966;48.112;9.282;2022-09-13T15:00:20;94148.66;;;36.32;23.56
9855;BME280;4966;48.112;9.282;2022-09-13T15:02:49;94138.22;;;35.59;24.14
9855;BME280;4966;48.112;9.282;2022-09-13T15:05:19;94148.25;;;35.26;25.35
9855;BME280;4966;48.112;9.282;2022-09-13T15:07:45;94143.81;;;34.97;24.18
9855;BME280;4966;48.112;9.282;2022-09-13T15:12:36;94132.53;;;34.26;25.94
9855;BME280;4966;48.112;9.282;2022-09-13T15:17:57;94132.25;;;33.75;26.14
9855;BME280;4966;48.112;9.282;2022-09-13T15:20:24;94129.63;;;33.34;28.08
9855;BME280;4966;48.112;9.282;2022-09-13T15:22:51;94130.69;;;33.37;28.42
9855;BME280;4966;48.112;9.282;2022-09-13T15:25:26;94121.22;;;33.08;29.49
9855;BME280;4966;48.112;9.282;2022-09-13T15:27:52;94119.50;;;33.16;29.59
9855;BME280;4966;48.112;9.282;2022-09-13T15:32:45;94119.13;;;33.66;31.02
9855;BME280;4966;48.112;9.282;2022-09-13T15:35:17;94105.66;;;33.87;31.26
9855;BME280;4966;48.112;9.282;2022-09-13T15:37:45;94106.31;;;33.65;31.32
9855;BME280;4966;48.112;9.282;2022-09-13T15:40:19;94100.91;;;33.62;33.78
9855;BME280;4966;48.112;9.282;2022-09-13T15:42:46;94098.81;;;34.05;30.87
9855;BME280;4966;48.112;9.282;2022-09-13T15:45:11;94088.06;;;34.86;29.05
9855;BME280;4966;48.112;9.282;2022-09-13T15:47:37;94085.25;;;35.09;27.40
9855;BME280;4966;48.112;9.282;2022-09-13T15:50:03;94083.47;;;35.40;26.34
9855;BME280;4966;48.112;9.282;2022-09-13T15:52:28;94080.50;;;36.18;26.13
9855;BME280;4966;48.112;9.282;2022-09-13T15:54:54;94084.81;;;37.19;24.39
9855;BME280;4966;48.112;9.282;2022-09-13T15:57:27;94078.34;;;37.55;23.35
9855;BME280;4966;48.112;9.282;2022-09-13T15:59:54;94075.56;;;37.74;23.43
9855;BME280;4966;48.112;9.282;2022-09-13T16:02:25;94066.88;;;37.91;24.39
9855;BME280;4966;48.112;9.282;2022-09-13T16:04:53;94059.28;;;37.99;23.47
9855;BME280;4966;48.112;9.282;2022-09-13T16:07:20;94069.84;;;37.55;24.67
9855;BME280;4966;48.112;9.282;2022-09-13T16:09:46;94067.78;;;36.42;25.50
9855;BME280;4966;48.112;9.282;2022-09-13T16:12:12;94070.38;;;35.14;26.67
9855;BME280;4966;48.112;9.282;2022-09-13T16:14:38;94074.53;;;33.71;28.66
9855;BME280;4966;48.112;9.282;2022-09-13T16:17:19;94067.22;;;32.57;31.17
9855;BME280;4966;48.112;9.282;2022-09-13T16:19:45;94069.50;;;31.71;32.49
9855;BME280;4966;48.112;9.282;2022-09-13T16:22:10;94069.09;;;30.93;34.04
9855;BME280;4966;48.112;9.282;2022-09-13T16:24:36;94081.25;;;30.45;36.23
9855;BME280;4966;48.112;9.282;2022-09-13T16:27:02;94069.22;;;29.91;36.56
9855;BME280;4966;48.112;9.282;2022-09-13T16:29:28;94067.19;;;29.43;38.56
9855;BME280;4966;48.112;9.282;2022-09-13T16:31:53;94079.16;;;29.01;40.29
9855;BME280;4966;48.112;9.282;2022-09-13T16:34:18;94074.03;;;28.39;42.43
9855;BME280;4966;48.112;9.282;2022-09-13T16:36:44;94071.88;;;28.15;43.90
9855;BME280;4966;48.112;9.282;2022-09-13T16:39:09;94066.94;;;27.83;43.87
9855;BME280;4966;48.112;9.282;2022-09-13T16:41:37;94076.81;;;27.56;44.32
9855;BME280;4966;48.112;9.282;2022-09-13T16:44:03;94071.50;;;26.99;46.49
9855;BME280;4966;48.112;9.282;2022-09-13T16:46:29;94074.63;;;26.70;49.32
9855;BME280;4966;48.112;9.282;2022-09-13T16:48:55;94072.28;;;26.46;50.01